Time;durP1;ratioP1;P1;durP2;ratioP2;P2;SDS_P1;SDS_P2;PMS_P1;PMS_P2;Temp;Humidity;BMP_temperature;BMP_pressure;BME280_temperature;BME280_humidity;BME280_pressure;Samples;Min_cycle;Max_cycle;Signal;HPM_P1;HPM_P2
2022/06/20 00:00:28;;;;;;;3.83;1.15;;;13.60;99.90;;;;;;5053806;28;20049;-85
2022/06/20 00:02:57;;;;;;;5.57;1.10;;;13.60;99.90;;;;;;5035115;28;20511;-84
2022/06/20 00:05:30;;;;;;;5.18;1.20;;;13.70;99.90;;;;;;5041234;28;20155;-83
2022/06/20 00:07:55;;;;;;;6.72;1.17;;;13.60;99.90;;;;;;5036997;28;20076;-84
2022/06/20 00:10:24;;;;;;;10.40;1.33;;;13.60;99.90;;;;;;5044165;28;20536;-84
2022/06/20 00:12:51;;;;;;;7.03;1.10;;;14.10;99.90;;;;;;5045265;28;20164;-84
2022/06/20 00:15:21;;;;;;;7.38;1.30;;;13.60;99.90;;;;;;5035308;28;20148;-85
2022/06/20 00:17:47;;;;;;;6.05;1.67;;;13.60;99.90;;;;;;5037795;28;20850;-84
2022/06/20 00:20:15;;;;;;;9.45;2.17;;;13.60;99.90;;;;;;5037130;28;20148;-85
2022/06/20 00:22:40;;;;;;;8.88;1.60;;;13.60;99.90;;;;;;5041483;28;20704;-85
2022/06/20 00:25:07;;;;;;;6.55;1.77;;;13.60;99.90;;;;;;5032624;28;20048;-85
2022/06/20 00:27:32;;;;;;;6.50;2.10;;;13.60;99.90;;;;;;5035280;28;20044;-85
2022/06/20 00:29:58;;;;;;;7.93;1.88;;;13.60;99.90;;;;;;5027173;28;20049;-85
2022/06/20 00:32:24;;;;;;;6.30;1.17;;;13.60;99.90;;;;;;5029673;28;20048;-84
2022/06/20 00:34:49;;;;;;;6.88;1.15;;;13.60;99.90;;;;;;5052277;28;20397;-85
2022/06/20 00:37:18;;;;;;;6.05;1.38;;;13.70;99.90;;;;;;5036925;28;20045;-85
2022/06/20 00:39:45;;;;;;;7.78;1.83;;;13.70;99.90;;;;;;5036266;28;20126;-85
2022/06/20 00:42:10;;;;;;;7.90;1.42;;;14.10;99.90;;;;;;5042014;28;20036;-85
2022/06/20 00:44:41;;;;;;;5.82;1.58;;;13.70;99.90;;;;;;5045672;28;20045;-85
2022/06/20 00:47:15;;;;;;;7.65;1.50;;;13.70;99.90;;;;;;5036962;28;20077;-85
2022/06/20 00:49:50;;;;;;;7.88;2.00;;;13.70;99.90;;;;;;5048424;28;20044;-85
2022/06/20 00:52:39;;;;;;;6.93;1.40;;;13.70;99.90;;;;;;5042879;28;20053;-84
2022/06/20 00:55:10;;;;;;;8.27;1.67;;;13.70;99.90;;;;;;5042960;28;20114;-85
2022/06/20 00:57:48;;;;;;;7.70;1.70;;;13.70;99.90;;;;;;5054306;28;20918;-84
2022/06/20 01:00:18;;;;;;;4.43;1.50;;;13.60;99.90;;;;;;5040176;28;20053;-85
2022/06/20 01:02:47;;;;;;;10.38;2.03;;;13.60;99.90;;;;;;5043936;28;20045;-85
2022/06/20 01:05:20;;;;;;;8.30;1.70;;;13.60;99.90;;;;;;5035997;28;20037;-84
2022/06/20 01:07:57;;;;;;;9.48;1.80;;;13.60;99.90;;;;;;5061578;28;20460;-85
2022/06/20 01:10:25;;;;;;;7.95;1.70;;;13.60;99.90;;;;;;5039523;28;20045;-84
2022/06/20 01:12:58;;;;;;;8.05;1.77;;;13.60;99.90;;;;;;5047186;28;21000;-84
2022/06/20 01:15:39;;;;;;;12.63;3.13;;;13.60;99.90;;;;;;5035100;28;20746;-84
2022/06/20 01:18:16;;;;;;;7.82;1.58;;;13.60;99.90;;;;;;5042085;28;20040;-84
2022/06/20 01:20:44;;;;;;;8.50;1.80;;;13.50;99.90;;;;;;5043622;28;20052;-85
2022/06/20 01:23:52;;;;;;;12.65;2.05;;;13.50;99.90;;;;;;5050176;28;20127;-85
2022/06/20 01:26:29;;;;;;;10.00;2.05;;;13.40;99.90;;;;;;5037042;28;20621;-84
2022/06/20 01:28:59;;;;;;;7.57;2.17;;;13.40;99.90;;;;;;5049892;28;20049;-85
2022/06/20 01:31:28;;;;;;;6.68;1.55;;;13.30;99.90;;;;;;5044849;28;20164;-84
2022/06/20 01:33:55;;;;;;;10.07;1.95;;;13.20;99.90;;;;;;5044315;28;20105;-84
2022/06/20 01:39:07;;;;;;;4.60;1.80;;;13.10;99.90;;;;;;5037058;28;20143;-84
2022/06/20 01:44:19;;;;;;;9.00;2.40;;;13.00;99.90;;;;;;5055981;28;20048;-85
2022/06/20 01:46:44;;;;;;;7.40;2.15;;;13.00;99.90;;;;;;5042008;28;20053;-85
2022/06/20 01:49:15;;;;;;;8.98;2.08;;;13.00;99.90;;;;;;5045574;28;20044;-85
2022/06/20 01:51:50;;;;;;;7.13;1.75;;;13.00;99.90;;;;;;5050830;28;20091;-85
2022/06/20 01:54:16;;;;;;;;;;;13.00;99.90;;;;;;5050649;28;20059;-85
2022/06/20 01:56:44;;;;;;;6.90;1.73;;;13.10;99.90;;;;;;5056159;28;20600;-84
2022/06/20 01:59:15;;;;;;;9.23;2.75;;;13.00;99.90;;;;;;5038403;28;20851;-85
2022/06/20 02:01:44;;;;;;;7.72;1.83;;;13.00;99.90;;;;;;5042193;28;20152;-84
2022/06/20 02:04:16;;;;;;;10.00;2.13;;;12.90;99.90;;;;;;5047936;28;20094;-84
2022/06/20 02:06:42;;;;;;;6.70;1.50;;;12.90;99.90;;;;;;5040599;28;20152;-84
2022/06/20 02:09:11;;;;;;;10.73;2.35;;;12.90;99.90;;;;;;5059628;28;21090;-84
2022/06/20 02:11:43;;;;;;;8.18;2.13;;;12.80;99.90;;;;;;5046905;28;20122;-85
2022/06/20 02:14:20;;;;;;;5.55;1.75;;;13.00;99.90;;;;;;5042305;28;20134;-84
2022/06/20 02:16:51;;;;;;;8.15;2.28;;;12.70;99.90;;;;;;5036387;28;20049;-85
2022/06/20 02:19:25;;;;;;;7.65;2.03;;;12.60;99.90;;;;;;5050284;28;20037;-85
2022/06/20 02:21:55;;;;;;;9.77;2.25;;;12.60;99.90;;;;;;5039931;28;20048;-84
2022/06/20 02:24:27;;;;;;;5.90;1.90;;;12.50;99.90;;;;;;5056243;28;20064;-84
2022/06/20 02:26:56;;;;;;;8.20;2.30;;;12.50;99.90;;;;;;5037246;28;20059;-84
2022/06/20 02:29:26;;;;;;;6.30;2.03;;;12.40;99.90;;;;;;5039107;28;20103;-84
2022/06/20 02:31:59;;;;;;;10.40;1.98;;;12.40;99.90;;;;;;5049397;28;20139;-84
2022/06/20 02:34:28;;;;;;;7.05;1.92;;;12.30;99.90;;;;;;5044053;28;20051;-85
2022/06/20 02:36:57;;;;;;;5.10;2.10;;;12.50;99.90;;;;;;5047882;28;20407;-85
2022/06/20 02:39:25;;;;;;;6.95;2.25;;;12.20;99.90;;;;;;5035069;28;20503;-84
2022/06/20 02:41:57;;;;;;;8.65;2.30;;;12.20;99.90;;;;;;5047900;28;20540;-84
2022/06/20 02:44:30;;;;;;;7.88;1.98;;;12.10;99.90;;;;;;5041091;28;20048;-84
2022/06/20 02:46:56;;;;;;;8.35;1.80;;;12.40;99.90;;;;;;5039190;28;20107;-84
2022/06/20 02:49:26;;;;;;;11.02;2.30;;;12.00;99.90;;;;;;5053323;28;20064;-84
2022/06/20 02:51:54;;;;;;;7.32;2.08;;;12.00;99.90;;;;;;5052260;28;20072;-85
2022/06/20 02:54:25;;;;;;;5.18;2.08;;;12.10;99.90;;;;;;5035747;28;20605;-84
2022/06/20 02:56:58;;;;;;;12.77;1.70;;;12.10;99.90;;;;;;5053906;28;20689;-84
2022/06/20 02:59:32;;;;;;;6.63;1.90;;;12.10;99.90;;;;;;5048312;28;20052;-84
2022/06/20 03:02:05;;;;;;;5.13;1.50;;;12.00;99.90;;;;;;5043937;28;20041;-84
2022/06/20 03:04:36;;;;;;;10.20;1.60;;;12.00;99.90;;;;;;5029472;28;20763;-84
2022/06/20 03:07:09;;;;;;;6.65;1.70;;;12.10;99.90;;;;;;5028951;28;20077;-84
2022/06/20 03:09:39;;;;;;;8.25;1.77;;;12.00;99.90;;;;;;5038617;28;20064;-84
2022/06/20 03:12:07;;;;;;;8.82;2.00;;;11.90;99.90;;;;;;5053023;28;20118;-83
2022/06/20 03:14:54;;;;;;;6.78;1.52;;;11.80;99.90;;;;;;5033386;28;20045;-84
2022/06/20 03:17:22;;;;;;;9.13;1.80;;;11.80;99.90;;;;;;5039084;28;20044;-84
2022/06/20 03:19:53;;;;;;;5.03;1.40;;;11.80;99.90;;;;;;5026119;28;20040;-84
2022/06/20 03:22:22;;;;;;;10.60;1.75;;;11.70;99.90;;;;;;5037395;28;20044;-84
2022/06/20 03:24:50;;;;;;;4.63;1.77;;;11.70;99.90;;;;;;5067436;22;20089;-84
2022/06/20 03:27:26;;;;;;;5.53;1.58;;;11.70;99.90;;;;;;4975398;28;20775;-84
2022/06/20 03:29:55;;;;;;;6.57;1.90;;;12.30;99.90;;;;;;4971075;28;20581;-84
2022/06/20 03:32:29;;;;;;;7.65;1.70;;;11.80;99.90;;;;;;4973998;28;20187;-83
2022/06/20 03:34:55;;;;;;;8.25;2.10;;;11.60;99.90;;;;;;4973746;28;20047;-83
2022/06/20 03:37:22;;;;;;;5.97;2.00;;;12.20;99.90;;;;;;4967594;28;20640;-84
2022/06/20 03:40:05;;;;;;;7.70;1.83;;;12.40;99.90;;;;;;4977829;28;20146;-84
2022/06/20 03:42:31;;;;;;;5.20;1.77;;;11.60;99.90;;;;;;4977811;28;20116;-85
2022/06/20 03:44:59;;;;;;;9.93;1.88;;;12.20;99.90;;;;;;4971731;28;20050;-84
2022/06/20 03:47:43;;;;;;;7.93;2.10;;;11.50;99.90;;;;;;4968168;28;20092;-84
2022/06/20 03:50:19;;;;;;;7.82;1.55;;;11.70;99.90;;;;;;4979949;28;20240;-84
2022/06/20 03:53:17;;;;;;;6.53;1.80;;;11.40;99.90;;;;;;4973304;28;20459;-83
2022/06/20 03:55:55;;;;;;;4.05;1.80;;;11.40;99.90;;;;;;4980653;28;20049;-84
2022/06/20 03:58:44;;;;;;;6.80;1.75;;;11.30;99.90;;;;;;4986636;28;20052;-84
2022/06/20 04:01:14;;;;;;;5.00;1.88;;;11.30;99.90;;;;;;4971169;28;20061;-84
2022/06/20 04:04:10;;;;;;;5.53;1.55;;;11.30;99.90;;;;;;4981359;28;20043;-84
2022/06/20 04:06:44;;;;;;;7.00;2.15;;;11.20;99.90;;;;;;4976632;28;20537;-84
2022/06/20 04:12:13;;;;;;;6.57;1.75;;;11.40;99.90;;;;;;4975977;28;20054;-84
2022/06/20 04:14:40;;;;;;;5.70;2.55;;;11.20;99.90;;;;;;4983895;28;20490;-84
2022/06/20 04:20:47;;;;;;;7.15;1.85;;;11.20;99.90;;;;;;4977561;28;20042;-84
2022/06/20 04:23:29;;;;;;;5.97;1.95;;;11.30;99.90;;;;;;4980254;28;20125;-84
2022/06/20 04:26:13;;;;;;;13.27;2.72;;;11.90;99.90;;;;;;4974746;28;20585;-85
2022/06/20 04:29:14;;;;;;;5.25;1.90;;;11.20;99.90;;;;;;4977009;28;20061;-84
2022/06/20 04:31:52;;;;;;;8.77;2.10;;;11.30;99.90;;;;;;4946325;28;20062;-84
2022/06/20 04:34:42;;;;;;;7.85;1.83;;;11.30;99.90;;;;;;4973754;28;20062;-84
2022/06/20 04:37:17;;;;;;;6.60;2.45;;;12.10;99.90;;;;;;4971538;28;20795;-84
2022/06/20 04:40:10;;;;;;;9.13;2.45;;;11.50;99.90;;;;;;4976396;28;20055;-84
2022/06/20 04:43:01;;;;;;;8.27;2.40;;;11.50;99.90;;;;;;4972697;28;20679;-85
2022/06/20 04:45:29;;;;;;;8.45;2.38;;;12.40;99.90;;;;;;4964959;28;20049;-84
2022/06/20 04:48:17;;;;;;;7.05;2.30;;;12.20;99.90;;;;;;4970831;28;20054;-85
2022/06/20 04:50:56;;;;;;;6.97;2.15;;;11.80;99.90;;;;;;4960069;28;20050;-85
2022/06/20 04:53:33;;;;;;;7.40;2.83;;;12.50;99.90;;;;;;4974669;28;20050;-84
2022/06/20 04:56:02;;;;;;;10.32;2.63;;;11.80;99.90;;;;;;4958370;28;20379;-84
2022/06/20 04:58:34;;;;;;;7.90;2.40;;;11.80;99.90;;;;;;4976014;28;20061;-84
2022/06/20 05:01:00;;;;;;;8.98;2.38;;;12.50;99.90;;;;;;4975324;28;20078;-84
2022/06/20 05:03:31;;;;;;;10.68;3.10;;;12.40;99.90;;;;;;4971482;28;20050;-82
2022/06/20 05:06:05;;;;;;;8.32;2.60;;;12.00;99.90;;;;;;4968964;28;20577;-84
2022/06/20 05:08:37;;;;;;;13.52;2.90;;;11.90;99.90;;;;;;4974389;28;20050;-87
2022/06/20 05:11:42;;;;;;;8.20;2.38;;;11.90;99.90;;;;;;4971775;28;20104;-88
2022/06/20 05:14:10;;;;;;;9.48;2.92;;;12.00;99.90;;;;;;4970733;28;20050;-86
2022/06/20 05:16:50;;;;;;;9.52;3.22;;;12.00;99.90;;;;;;4963381;28;21744;-86
2022/06/20 05:19:30;;;;;;;6.32;2.80;;;12.70;99.90;;;;;;4978203;28;20568;-89
2022/06/20 05:22:02;;;;;;;12.48;2.92;;;12.10;99.90;;;;;;4973776;28;20051;-88
2022/06/20 05:24:35;;;;;;;10.38;2.88;;;12.10;99.90;;;;;;4972506;28;20058;-87
2022/06/20 05:27:19;;;;;;;11.10;3.25;;;11.30;99.90;;;;;;5060852;23;20045;-88
2022/06/20 05:30:00;;;;;;;11.02;2.95;;;12.20;99.90;;;;;;4937821;29;20138;-86
2022/06/20 05:33:09;;;;;;;9.40;3.63;;;12.60;99.90;;;;;;4942663;29;20051;-85
2022/06/20 05:35:59;;;;;;;9.82;2.95;;;11.80;99.90;;;;;;4851961;29;20541;-87
2022/06/20 05:38:47;;;;;;;5.93;2.85;;;12.40;99.90;;;;;;4855463;29;20149;-87
2022/06/20 05:41:15;;;;;;;10.02;3.20;;;12.40;99.90;;;;;;4927692;29;20059;-87
2022/06/20 05:43:41;;;;;;;12.10;3.40;;;12.00;99.90;;;;;;4928791;29;20114;-88
2022/06/20 05:46:22;;;;;;;10.27;3.10;;;13.00;99.90;;;;;;4930111;29;20039;-88
2022/06/20 05:48:52;;;;;;;9.55;3.35;;;13.40;99.90;;;;;;4945867;29;20043;-85
2022/06/20 05:51:21;;;;;;;17.40;3.55;;;12.90;99.90;;;;;;4944190;29;20069;-91
2022/06/20 05:54:25;;;;;;;16.08;3.08;;;12.30;99.90;;;;;;4928104;28;20706;-88
2022/06/20 05:57:05;;;;;;;10.18;3.42;;;12.50;99.90;;;;;;4911959;29;20146;-82
2022/06/20 05:59:39;;;;;;;10.70;3.63;;;13.00;99.90;;;;;;4924749;29;20051;-81
2022/06/20 06:02:43;;;;;;;13.68;3.50;;;13.00;99.90;;;;;;4932175;29;20051;-80
2022/06/20 06:05:28;;;;;;;11.02;3.00;;;13.00;99.90;;;;;;4916327;29;20423;-81
2022/06/20 06:08:13;;;;;;;11.13;3.50;;;13.10;99.90;;;;;;4943851;29;20175;-82
2022/06/20 06:10:45;;;;;;;9.52;3.05;;;13.20;99.90;;;;;;4941209;29;20625;-82
2022/06/20 06:13:26;;;;;;;12.82;3.45;;;14.00;99.90;;;;;;4938781;29;20050;-82
2022/06/20 06:19:24;;;;;;;10.95;3.40;;;13.40;99.90;;;;;;4943203;29;20094;-82
2022/06/20 06:37:24;;;;;;;12.45;2.63;;;13.90;99.90;;;;;;4892848;29;20151;-86
2022/06/20 06:40:38;;;;;;;13.80;3.33;;;14.30;99.90;;;;;;4949619;28;20039;-85
2022/06/20 06:48:03;;;;;;;;;;;;;;;;;;;;;
2022/06/20 06:54:51;;;;;;;;;;;;;;;;;;;;;
2022/06/20 07:01:23;;;;;;;8.15;2.85;;;14.80;99.90;;;;;;4929886;28;20041;-85
2022/06/20 07:04:42;;;;;;;10.05;2.60;;;14.90;99.90;;;;;;4927471;29;20096;-82
2022/06/20 07:07:34;;;;;;;9.07;2.90;;;15.10;99.90;;;;;;4884257;29;20135;-87
2022/06/20 07:10:00;;;;;;;10.05;3.10;;;15.50;99.90;;;;;;4927824;28;20154;-83
2022/06/20 07:12:31;;;;;;;9.80;2.83;;;15.90;99.90;;;;;;4930499;29;20163;-82
2022/06/20 07:15:10;;;;;;;13.15;2.85;;;15.80;99.90;;;;;;4935520;29;20112;-83
2022/06/20 07:17:56;;;;;;;11.30;2.60;;;15.90;99.90;;;;;;4913307;29;20232;-84
2022/06/20 07:20:28;;;;;;;14.18;2.90;;;16.20;99.90;;;;;;4926774;29;20063;-85
2022/06/20 07:22:54;;;;;;;9.55;2.88;;;16.40;99.90;;;;;;4940434;29;20081;-83
2022/06/20 07:25:24;;;;;;;10.52;3.00;;;16.50;99.90;;;;;;4918211;29;20506;-80
2022/06/20 07:28:13;;;;;;;9.45;2.58;;;16.60;99.90;;;;;;4940796;29;20039;-83
2022/06/20 07:30:55;;;;;;;11.55;2.67;;;16.80;99.90;;;;;;4925922;29;20097;-81
2022/06/20 07:33:45;;;;;;;10.40;2.53;;;17.40;99.90;;;;;;4908382;29;20159;-81
2022/06/20 07:36:14;;;;;;;8.18;2.20;;;17.60;99.90;;;;;;4921884;29;20067;-82
2022/06/20 07:38:56;;;;;;;9.18;2.17;;;17.50;99.90;;;;;;4930624;29;20047;-82
2022/06/20 07:41:31;;;;;;;8.93;2.47;;;17.30;99.90;;;;;;4924126;29;20896;-82
2022/06/20 07:44:06;;;;;;;7.35;2.20;;;17.10;99.90;;;;;;4937639;29;20057;-82
2022/06/20 07:46:46;;;;;;;10.85;2.20;;;17.20;99.90;;;;;;4937463;29;20589;-82
2022/06/20 07:49:44;;;;;;;7.72;2.03;;;17.60;99.90;;;;;;4940871;28;20506;-81
2022/06/20 07:52:20;;;;;;;11.55;2.78;;;18.00;99.90;;;;;;4936082;28;20242;-81
2022/06/20 07:54:50;;;;;;;6.95;2.13;;;18.20;99.90;;;;;;4925250;29;20095;-82
2022/06/20 07:57:24;;;;;;;7.47;1.67;;;17.80;99.90;;;;;;4928876;29;20055;-82
2022/06/20 08:00:17;;;;;;;8.50;1.85;;;17.50;99.90;;;;;;4942317;29;20097;-84
2022/06/20 08:03:00;;;;;;;9.60;1.75;;;17.30;99.90;;;;;;4921402;29;20079;-83
2022/06/20 08:05:56;;;;;;;5.47;1.50;;;17.10;99.90;;;;;;4937896;29;20047;-80
2022/06/20 08:08:35;;;;;;;9.98;2.05;;;17.00;99.90;;;;;;4941392;29;20059;-80
2022/06/20 08:11:10;;;;;;;10.25;2.25;;;17.00;99.90;;;;;;4924504;29;20073;-80
2022/06/20 08:13:45;;;;;;;7.95;1.65;;;17.10;99.90;;;;;;4941519;29;20090;-80
2022/06/20 08:16:19;;;;;;;10.77;1.67;;;17.30;99.90;;;;;;4925184;29;20106;-80
2022/06/20 08:18:45;;;;;;;5.68;1.58;;;17.30;99.90;;;;;;4923333;29;20137;-80
2022/06/20 08:21:22;;;;;;;5.65;1.77;;;17.20;99.90;;;;;;4941929;29;20055;-79
2022/06/20 08:24:01;;;;;;;8.98;1.75;;;17.00;99.90;;;;;;4924332;29;20055;-80
2022/06/20 08:26:36;;;;;;;8.95;1.33;;;17.00;99.90;;;;;;4924325;29;20066;-80
2022/06/20 08:29:15;;;;;;;5.03;1.20;;;17.10;99.90;;;;;;4940832;29;20043;-80
2022/06/20 08:31:51;;;;;;;4.47;1.30;;;17.30;99.90;;;;;;4924070;29;20685;-80
2022/06/20 08:34:42;;;;;;;5.38;1.15;;;17.60;99.90;;;;;;4923495;29;20051;-80
2022/06/20 08:37:20;;;;;;;6.82;1.23;;;17.80;99.90;;;;;;4932403;29;20050;-79
2022/06/20 08:40:11;;;;;;;7.25;1.40;;;17.90;99.90;;;;;;4922833;29;20107;-80
2022/06/20 08:42:59;;;;;;;8.07;1.13;;;18.10;99.90;;;;;;4905461;29;20090;-80
2022/06/20 08:45:56;;;;;;;2.90;1.10;;;18.40;99.90;;;;;;4905021;29;20051;-80
2022/06/20 08:48:52;;;;;;;3.53;0.98;;;18.50;99.90;;;;;;4908778;29;20491;-80
2022/06/20 08:52:06;;;;;;;4.10;1.00;;;18.70;99.90;;;;;;4922904;29;20779;-80
2022/06/20 08:55:09;;;;;;;4.70;1.20;;;18.90;99.90;;;;;;4905684;29;20134;-80
2022/06/20 08:57:55;;;;;;;5.93;1.20;;;18.90;99.90;;;;;;4829619;29;20233;-81
2022/06/20 09:00:41;;;;;;;9.23;2.20;;;18.80;99.90;;;;;;4936342;29;20074;-80
2022/06/20 09:03:28;;;;;;;4.95;1.35;;;18.60;99.90;;;;;;4940466;28;20126;-79
2022/06/20 09:06:08;;;;;;;6.25;1.67;;;18.40;99.90;;;;;;4927996;29;20051;-80
2022/06/20 09:08:40;;;;;;;6.43;1.58;;;18.10;99.90;;;;;;4913376;29;20304;-79
2022/06/20 09:11:26;;;;;;;6.97;1.60;;;17.80;99.90;;;;;;4926265;28;20649;-80
2022/06/20 09:14:22;;;;;;;6.88;1.50;;;17.60;99.90;;;;;;4937139;29;20070;-80
2022/06/20 09:17:09;;;;;;;6.45;1.65;;;17.40;99.90;;;;;;4923689;29;20407;-80
2022/06/20 09:20:00;;;;;;;5.82;1.50;;;17.60;99.90;;;;;;4936942;28;20122;-81
2022/06/20 09:22:34;;;;;;;8.93;1.98;;;17.90;99.90;;;;;;4910286;29;20467;-81
2022/06/20 09:25:24;;;;;;;6.03;1.48;;;18.30;99.90;;;;;;4909434;29;20055;-81
2022/06/20 09:28:18;;;;;;;8.88;1.38;;;18.50;99.90;;;;;;4933881;29;20047;-80
2022/06/20 09:31:05;;;;;;;8.40;1.48;;;18.60;99.90;;;;;;4909993;29;20864;-81
2022/06/20 09:33:49;;;;;;;7.70;1.30;;;18.40;99.90;;;;;;4909316;29;20059;-80
2022/06/20 09:36:43;;;;;;;5.15;1.40;;;18.30;99.90;;;;;;4926727;29;20086;-82
2022/06/20 09:39:41;;;;;;;6.55;1.20;;;18.30;99.90;;;;;;4924821;29;20691;-79
2022/06/20 09:42:28;;;;;;;5.63;1.10;;;18.40;99.90;;;;;;4923107;29;20086;-80
2022/06/20 09:45:30;;;;;;;4.95;0.95;;;18.40;99.90;;;;;;4924366;29;20049;-80
2022/06/20 09:48:14;;;;;;;4.45;1.20;;;18.40;99.90;;;;;;4908160;29;20063;-81
2022/06/20 09:50:44;;;;;;;2.70;1.10;;;18.30;99.90;;;;;;4927642;29;20051;-80
2022/06/20 09:53:25;;;;;;;5.30;1.02;;;18.70;99.90;;;;;;4925815;29;20623;-82
2022/06/20 09:56:07;;;;;;;3.40;1.05;;;18.70;98.70;;;;;;4942269;29;20054;-82
2022/06/20 09:59:15;;;;;;;5.38;1.17;;;19.20;99.00;;;;;;4927411;29;20114;-81
2022/06/20 10:01:56;;;;;;;5.15;1.30;;;18.80;99.20;;;;;;4918211;29;20654;-79
2022/06/20 10:04:57;;;;;;;8.38;1.40;;;18.70;99.50;;;;;;4924408;29;20110;-80
2022/06/20 10:07:56;;;;;;;5.18;1.48;;;18.90;99.50;;;;;;4944749;29;20069;-80
2022/06/20 10:10:48;;;;;;;5.07;1.38;;;18.40;99.90;;;;;;4924833;29;20051;-80
2022/06/20 10:13:40;;;;;;;6.45;1.40;;;18.30;99.90;;;;;;4926166;29;20056;-80
2022/06/20 10:16:13;;;;;;;7.05;1.33;;;18.20;99.90;;;;;;4933375;29;20052;-80
2022/06/20 10:18:57;;;;;;;5.97;1.25;;;18.10;99.90;;;;;;4943400;29;20054;-80
2022/06/20 10:21:46;;;;;;;3.90;1.15;;;18.00;99.90;;;;;;4926162;29;20645;-81
2022/06/20 10:24:17;;;;;;;6.10;1.60;;;18.20;99.90;;;;;;4940477;29;20047;-80
2022/06/20 10:27:24;;;;;;;6.35;1.33;;;18.40;99.90;;;;;;4942899;29;20043;-81
2022/06/20 10:29:59;;;;;;;2.95;1.10;;;18.50;99.90;;;;;;4928395;29;20118;-80
2022/06/20 10:32:43;;;;;;;4.50;1.38;;;18.60;99.90;;;;;;4940515;29;20837;-79
2022/06/20 10:35:15;;;;;;;3.17;1.02;;;18.90;99.80;;;;;;4916443;29;20106;-79
2022/06/20 10:37:58;;;;;;;6.35;1.67;;;19.00;99.20;;;;;;4923902;29;20079;-80
2022/06/20 10:40:45;;;;;;;3.28;0.80;;;18.90;99.90;;;;;;4925480;29;20090;-81
2022/06/20 10:43:15;;;;;;;6.13;1.20;;;19.10;99.90;;;;;;4907475;29;20167;-81
2022/06/20 10:45:57;;;;;;;7.43;1.02;;;19.30;99.90;;;;;;4943420;29;20051;-80
2022/06/20 10:48:43;;;;;;;4.55;1.00;;;19.40;99.60;;;;;;4926327;29;20778;-80
2022/06/20 10:51:11;;;;;;;4.38;1.00;;;19.40;99.00;;;;;;4917859;29;20549;-81
2022/06/20 10:53:51;;;;;;;5.13;1.48;;;19.40;99.70;;;;;;4939523;29;20526;-82
2022/06/20 10:56:30;;;;;;;7.82;1.27;;;19.40;99.80;;;;;;4943527;29;20055;-81
2022/06/20 10:59:05;;;;;;;5.30;1.00;;;19.60;99.70;;;;;;4919985;29;20093;-80
2022/06/20 11:01:39;;;;;;;8.50;1.20;;;19.60;99.50;;;;;;4923612;29;20460;-80
2022/06/20 11:04:05;;;;;;;;;;;19.60;98.60;;;;;;4922530;29;20055;-81
2022/06/20 11:06:51;;;;;;;7.65;1.00;;;19.80;98.40;;;;;;4941769;29;19982;-81
2022/06/20 11:09:37;;;;;;;5.47;1.13;;;19.40;98.30;;;;;;4932596;29;20093;-80
2022/06/20 11:12:10;;;;;;;5.13;1.20;;;19.40;98.50;;;;;;4920482;29;20678;-80
2022/06/20 11:14:52;;;;;;;4.65;1.25;;;19.50;98.80;;;;;;4935013;29;20115;-80
2022/06/20 11:17:25;;;;;;;4.32;1.10;;;19.70;98.10;;;;;;4913310;29;20055;-80
2022/06/20 11:20:17;;;;;;;4.88;1.35;;;19.70;98.40;;;;;;4925021;29;20765;-81
2022/06/20 11:23:15;;;;;;;3.97;1.27;;;19.70;97.90;;;;;;4924343;29;20086;-80
2022/06/20 11:25:49;;;;;;;3.70;1.20;;;19.90;97.80;;;;;;4939282;28;20086;-82
2022/06/20 11:28:39;;;;;;;4.78;1.10;;;20.10;97.60;;;;;;4941103;29;20964;-81
2022/06/20 11:31:15;;;;;;;8.73;1.55;;;20.30;96.70;;;;;;4905785;29;20091;-81
2022/06/20 11:34:02;;;;;;;4.28;1.40;;;20.50;97.10;;;;;;4904535;29;20412;-81
2022/06/20 11:36:46;;;;;;;6.05;1.38;;;20.70;97.20;;;;;;4923850;29;20074;-80
2022/06/20 11:39:26;;;;;;;6.55;1.20;;;20.60;94.60;;;;;;4930726;29;20134;-81
2022/06/20 11:42:17;;;;;;;5.25;1.52;;;20.40;96.10;;;;;;4941689;29;20047;-81
2022/06/20 11:45:16;;;;;;;5.10;1.30;;;20.20;96.50;;;;;;4924059;29;20195;-80
2022/06/20 11:47:41;;;;;;;4.22;1.48;;;20.20;97.40;;;;;;4937189;29;20051;-82
2022/06/20 11:50:19;;;;;;;5.93;1.52;;;20.10;97.00;;;;;;4941913;29;20094;-86
2022/06/20 11:53:24;;;;;;;6.40;1.30;;;19.90;96.10;;;;;;4942294;29;20054;-87
2022/06/20 11:56:25;;;;;;;5.63;1.13;;;19.90;97.40;;;;;;4934367;29;20471;-85
2022/06/20 11:58:57;;;;;;;7.38;1.58;;;20.10;96.90;;;;;;4941139;29;20058;-85
2022/06/20 12:01:28;;;;;;;5.97;1.45;;;20.10;96.30;;;;;;4923663;29;20058;-84
2022/06/20 12:03:59;;;;;;;3.45;1.27;;;20.20;96.60;;;;;;4922436;29;20040;-84
2022/06/20 12:06:54;;;;;;;4.38;1.42;;;20.20;96.90;;;;;;4905246;29;20173;-83
2022/06/20 12:09:38;;;;;;;3.40;1.35;;;20.20;97.00;;;;;;4891202;29;20051;-87
2022/06/20 12:12:21;;;;;;;5.03;0.90;;;20.30;97.30;;;;;;4945164;29;20065;-88
2022/06/20 12:15:25;;;;;;;5.15;1.48;;;20.50;96.30;;;;;;4931736;29;20067;-89
2022/06/20 12:18:31;;;;;;;6.28;1.23;;;20.60;96.20;;;;;;4924948;29;20055;-89
2022/06/20 12:23:50;;;;;;;9.73;1.75;;;20.70;95.80;;;;;;4948342;29;20055;-89
2022/06/20 12:26:29;;;;;;;5.38;1.58;;;20.70;96.80;;;;;;4923883;29;20055;-89
2022/06/20 12:28:56;;;;;;;7.80;1.58;;;20.60;96.60;;;;;;4923901;29;20094;-84
2022/06/20 12:31:34;;;;;;;7.25;1.80;;;20.40;97.10;;;;;;4923741;29;20051;-86
2022/06/20 12:34:04;;;;;;;5.68;1.77;;;20.30;96.90;;;;;;4914055;29;20046;-85
2022/06/20 12:36:35;;;;;;;4.28;1.48;;;20.10;97.30;;;;;;4941414;28;20066;-85
2022/06/20 12:39:06;;;;;;;3.50;1.27;;;19.90;97.50;;;;;;4935710;29;20047;-86
2022/06/20 12:41:39;;;;;;;7.28;1.38;;;20.00;96.40;;;;;;4923121;29;20035;-83
2022/06/20 12:44:26;;;;;;;4.30;1.23;;;20.10;96.10;;;;;;4917874;29;20153;-84
2022/06/20 12:47:26;;;;;;;3.70;1.30;;;20.30;96.40;;;;;;4922926;29;20055;-83
2022/06/20 12:50:35;;;;;;;5.20;1.35;;;20.60;95.50;;;;;;4940778;29;20059;-87
2022/06/20 12:53:19;;;;;;;7.50;1.50;;;20.80;95.50;;;;;;4867287;29;20083;-83
2022/06/20 12:56:03;;;;;;;4.13;1.40;;;21.20;95.50;;;;;;4924111;29;20063;-83
2022/06/20 12:58:42;;;;;;;7.50;1.20;;;21.10;94.10;;;;;;4923711;29;20043;-86
2022/06/20 13:01:16;;;;;;;4.25;1.08;;;20.90;94.50;;;;;;4923112;29;20078;-83
2022/06/20 13:04:10;;;;;;;4.95;1.05;;;20.60;94.30;;;;;;4905057;29;20055;-84
2022/06/20 13:07:15;;;;;;;3.38;0.88;;;20.40;95.00;;;;;;4921564;29;20106;-85
2022/06/20 13:10:15;;;;;;;3.67;1.20;;;20.20;96.10;;;;;;4939360;29;20051;-83
2022/06/20 13:12:47;;;;;;;7.18;1.40;;;20.20;95.70;;;;;;4913459;29;20051;-86
2022/06/20 13:15:44;;;;;;;7.35;1.55;;;20.20;95.80;;;;;;4940407;29;20055;-85
2022/06/20 13:18:17;;;;;;;4.50;1.08;;;20.00;95.70;;;;;;4935193;29;20052;-87
2022/06/20 13:20:58;;;;;;;6.32;1.30;;;19.80;96.10;;;;;;4909180;29;20086;-84
2022/06/20 13:23:41;;;;;;;4.38;1.13;;;19.70;95.80;;;;;;4941159;29;20044;-86
2022/06/20 13:26:14;;;;;;;4.55;1.33;;;19.80;97.00;;;;;;4940365;29;20764;-85
2022/06/20 13:28:56;;;;;;;4.93;1.02;;;20.10;96.80;;;;;;4921637;29;20082;-88
2022/06/20 13:31:30;;;;;;;4.13;1.35;;;20.50;96.30;;;;;;4923854;29;20521;-87
2022/06/20 13:34:20;;;;;;;8.80;1.50;;;20.80;96.10;;;;;;4922637;29;20062;-83
2022/06/20 13:37:04;;;;;;;5.15;1.40;;;20.80;94.40;;;;;;4923301;29;20059;-85
2022/06/20 13:39:44;;;;;;;3.78;1.50;;;20.70;95.40;;;;;;4941789;29;20054;-86
2022/06/20 13:42:35;;;;;;;4.28;1.45;;;20.80;95.90;;;;;;4922303;29;20669;-86
2022/06/20 13:45:30;;;;;;;3.30;1.20;;;20.90;95.20;;;;;;4910225;29;20051;-91
2022/06/20 13:48:41;;;;;;;6.05;1.58;;;20.90;95.90;;;;;;4893974;29;20091;-87
2022/06/20 13:51:21;;;;;;;3.83;1.10;;;21.10;94.60;;;;;;4925923;29;20797;-89
2022/06/20 13:54:12;;;;;;;3.20;1.10;;;21.30;95.10;;;;;;4939570;29;20861;-84
2022/06/20 13:56:59;;;;;;;4.03;1.30;;;21.60;95.00;;;;;;4917221;29;20043;-84
2022/06/20 13:59:50;;;;;;;6.18;1.20;;;21.70;94.70;;;;;;4941203;29;20055;-82
2022/06/20 14:02:34;;;;;;;5.38;1.48;;;21.60;94.90;;;;;;4940859;28;20102;-83
2022/06/20 14:05:17;;;;;;;5.27;1.10;;;21.50;95.10;;;;;;4920708;29;20051;-81
2022/06/20 14:07:46;;;;;;;3.85;1.58;;;21.50;95.80;;;;;;4918680;29;20586;-82
2022/06/20 14:10:24;;;;;;;5.65;1.60;;;21.40;95.40;;;;;;4924608;29;20054;-83
2022/06/20 14:12:53;;;;;;;6.30;1.30;;;21.40;94.60;;;;;;4926388;29;20050;-83
2022/06/20 14:15:41;;;;;;;5.68;1.00;;;21.30;94.80;;;;;;4925441;29;20050;-82
2022/06/20 14:18:25;;;;;;;14.73;2.50;;;21.10;94.30;;;;;;4938321;29;20126;-85
2022/06/20 14:21:02;;;;;;;18.73;1.73;;;21.10;94.60;;;;;;4939424;29;20415;-84
2022/06/20 14:23:31;;;;;;;6.38;1.70;;;21.00;94.70;;;;;;4927143;29;20051;-87
2022/06/20 14:26:00;;;;;;;7.60;1.83;;;21.00;94.80;;;;;;4939898;29;20047;-92
2022/06/20 14:28:35;;;;;;;9.13;1.60;;;21.00;94.40;;;;;;4943252;28;20039;-87
2022/06/20 14:31:27;;;;;;;3.90;1.20;;;21.00;95.00;;;;;;4929625;29;20167;-88
2022/06/20 14:34:09;;;;;;;9.15;1.70;;;20.90;95.10;;;;;;4928339;29;20047;-89
2022/06/20 14:36:41;;;;;;;5.80;1.30;;;20.80;94.90;;;;;;4940319;29;20071;-88